TimeMST,TemperatureF,Dew PointF,Humidity,Sea Level PressureIn,VisibilityMPH,Wind Direction,Wind SpeedMPH,Gust SpeedMPH,PrecipitationIn,Events,Conditions,WindDirDegrees,DateUTC
12:15 AM,39.6,18.5,43,30.18,10.0,North,6.9,-,N/A,,Clear,360,2013-03-05 07:15:00
12:35 AM,37.4,20.7,51,30.19,10.0,North,3.5,-,N/A,,Clear,350,2013-03-05 07:35:00
12:55 AM,36.1,21.4,55,30.20,10.0,North,8.1,-,N/A,,Clear,10,2013-03-05 07:55:00
1:15 AM,35.6,20.8,55,30.20,10.0,North,5.8,-,N/A,,Clear,10,2013-03-05 08:15:00
6:15 AM,32.0,15.6,51,30.29,10.0,Calm,Calm,-,N/A,,Clear,0,2013-03-05 13:15:00
6:35 AM,31.8,16.5,53,30.29,10.0,Calm,Calm,-,N/A,,Clear,0,2013-03-05 13:35:00
6:55 AM,31.1,16.5,55,30.30,10.0,Calm,Calm,-,N/A,,Clear,0,2013-03-05 13:55:00
7:15 AM,31.1,16.7,55,30.30,-9999.0,Calm,Calm,-,N/A,,Clear,0,2013-03-05 14:15:00
7:35 AM,30.9,18.0,59,30.31,10.0,Calm,Calm,-,N/A,,Clear,0,2013-03-05 14:35:00
7:55 AM,31.1,18.3,59,30.31,10.0,Calm,Calm,-,N/A,,Clear,0,2013-03-05 14:55:00
8:15 AM,31.6,18.0,57,30.32,10.0,NE,3.5,-,N/A,,Clear,40,2013-03-05 15:15:00
8:35 AM,32.0,18.7,58,30.32,10.0,NE,4.6,-,N/A,,Clear,50,2013-03-05 15:35:00
8:55 AM,32.9,18.3,55,30.32,10.0,Calm,Calm,-,N/A,,Clear,0,2013-03-05 15:55:00
9:15 AM,34.0,17.8,52,30.31,10.0,Calm,Calm,-,N/A,,Clear,0,2013-03-05 16:15:00
9:35 AM,36.0,16.3,45,30.32,10.0,Calm,Calm,-,N/A,,Clear,0,2013-03-05 16:35:00
9:55 AM,37.9,15.1,39,30.32,10.0,ENE,3.5,-,N/A,,Clear,70,2013-03-05 16:55:00
10:15 AM,40.8,14.9,35,30.32,-9999.0,East,5.8,-,N/A,,Clear,90,2013-03-05 17:15:00
10:35 AM,41.2,13.5,32,30.33,10.0,East,4.6,-,N/A,,Clear,90,2013-03-05 17:35:00
10:55 AM,42.8,12.2,29,30.32,10.0,ENE,5.8,-,N/A,,Clear,70,2013-03-05 17:55:00
11:15 AM,43.0,12.2,29,30.31,10.0,East,5.8,-,N/A,,Clear,90,2013-03-05 18:15:00
11:35 AM,45.1,12.6,27,30.31,10.0,ESE,4.6,-,N/A,,Clear,120,2013-03-05 18:35:00
11:55 AM,45.0,12.9,27,30.31,10.0,ESE,4.6,-,N/A,,Clear,120,2013-03-05 18:55:00
12:15 PM,46.8,12.4,25,30.30,10.0,SSE,5.8,-,N/A,,Clear,150,2013-03-05 19:15:00
12:35 PM,47.5,11.7,24,30.29,10.0,SE,4.6,-,N/A,,Clear,130,2013-03-05 19:35:00
12:55 PM,47.8,11.8,23,30.28,10.0,SE,8.1,-,N/A,,Clear,130,2013-03-05 19:55:00
1:15 PM,49.6,13.5,24,30.27,10.0,SSE,8.1,-,N/A,,Clear,150,2013-03-05 20:15:00
1:35 PM,50.4,13.1,23,30.26,10.0,SSE,8.1,11.5,N/A,,Clear,160,2013-03-05 20:35:00
1:55 PM,50.5,13.5,23,30.25,10.0,SSW,8.1,-,N/A,,Clear,210,2013-03-05 20:55:00
2:15 PM,51.3,13.1,22,30.25,10.0,SSE,10.4,18.4,N/A,,Clear,150,2013-03-05 21:15:00
2:35 PM,51.1,13.6,23,30.25,10.0,South,10.4,-,N/A,,Clear,170,2013-03-05 21:35:00
2:55 PM,51.4,13.8,22,30.25,10.0,South,10.4,16.1,N/A,,Clear,170,2013-03-05 21:55:00
3:15 PM,51.4,13.6,22,30.24,10.0,SSE,9.2,18.4,N/A,,Clear,160,2013-03-05 22:15:00
3:35 PM,51.8,13.6,22,30.24,10.0,SSE,10.4,17.3,N/A,,Clear,150,2013-03-05 22:35:00
3:55 PM,50.9,13.1,22,30.24,10.0,South,13.8,-,N/A,,Clear,170,2013-03-05 22:55:00
4:15 PM,51.1,12.6,21,30.24,10.0,SSE,9.2,16.1,N/A,,Clear,150,2013-03-05 23:15:00
4:35 PM,50.0,11.5,21,30.24,10.0,SSE,12.7,-,N/A,,Clear,150,2013-03-05 23:35:00
4:55 PM,50.2,10.2,20,30.24,10.0,South,11.5,-,N/A,,Clear,170,2013-03-05 23:55:00
5:15 PM,50.4,8.6,19,30.23,10.0,South,11.5,16.1,N/A,,Clear,170,2013-03-06 00:15:00
5:35 PM,50.2,7.0,17,30.23,10.0,South,8.1,-,N/A,,Clear,180,2013-03-06 00:35:00
5:55 PM,49.6,4.1,16,30.23,10.0,South,11.5,16.1,N/A,,Clear,180,2013-03-06 00:55:00
6:15 PM,49.1,1.9,14,30.24,10.0,South,11.5,17.3,N/A,,Clear,190,2013-03-06 01:15:00
6:35 PM,48.0,2.1,15,30.25,10.0,SSW,6.9,-,N/A,,Clear,200,2013-03-06 01:35:00
6:55 PM,46.9,4.1,17,30.25,10.0,SSW,8.1,-,N/A,,Clear,210,2013-03-06 01:55:00
7:15 PM,46.0,6.1,20,30.25,10.0,SW,8.1,-,N/A,,Clear,220,2013-03-06 02:15:00
7:35 PM,46.0,6.6,20,30.25,10.0,SW,6.9,-,N/A,,Clear,220,2013-03-06 02:35:00
7:55 PM,46.2,5.9,19,30.25,10.0,SSW,8.1,-,N/A,,Clear,210,2013-03-06 02:55:00
8:15 PM,46.9,5.5,18,30.25,10.0,SSW,8.1,-,N/A,,Clear,210,2013-03-06 03:15:00
8:35 PM,46.4,3.2,17,30.25,10.0,SW,8.1,-,N/A,,Clear,220,2013-03-06 03:35:00
8:55 PM,46.6,2.8,17,30.25,10.0,SW,8.1,-,N/A,,Clear,230,2013-03-06 03:55:00
9:15 PM,46.4,5.5,19,30.25,10.0,SW,8.1,-,N/A,,Clear,220,2013-03-06 04:15:00
9:35 PM,46.6,7.2,20,30.25,10.0,SSW,8.1,-,N/A,,Clear,210,2013-03-06 04:35:00
9:55 PM,43.7,7.9,23,30.27,10.0,South,6.9,-,N/A,,Clear,170,2013-03-06 04:55:00
10:15 PM,43.5,7.7,23,30.27,10.0,South,6.9,-,N/A,,Clear,190,2013-03-06 05:15:00
10:35 PM,42.6,12.2,29,30.27,10.0,South,9.2,-,N/A,,Clear,180,2013-03-06 05:35:00
10:55 PM,42.1,12.6,30,30.26,10.0,South,8.1,-,N/A,,Clear,180,2013-03-06 05:55:00
11:15 PM,41.9,12.7,31,30.26,10.0,South,8.1,-,N/A,,Clear,190,2013-03-06 06:15:00
11:35 PM,42.4,10.6,27,30.25,10.0,SSW,8.1,-,N/A,,Clear,200,2013-03-06 06:35:00
11:55 PM,43.0,10.4,27,30.25,10.0,South,10.4,-,N/A,,Clear,190,2013-03-06 06:55:00